createdAt,value
2022-09-30T00:00:13.952Z,11.60
2022-09-30T00:02:42.883Z,12.30
2022-09-30T00:05:10.414Z,11.67
2022-09-30T00:07:38.213Z,12.77
2022-09-30T00:10:07.111Z,11.83
2022-09-30T00:12:37.136Z,12.23
2022-09-30T00:15:04.818Z,12.83
2022-09-30T00:17:32.232Z,11.43
2022-09-30T00:20:00.970Z,12.43
2022-09-30T00:22:28.389Z,10.93
2022-09-30T00:24:55.786Z,10.87
2022-09-30T00:27:23.233Z,11.20
2022-09-30T00:29:50.969Z,10.57
2022-09-30T00:32:18.359Z,11.00
2022-09-30T00:34:46.008Z,11.50
2022-09-30T00:37:16.724Z,9.57
2022-09-30T00:39:44.189Z,9.53
2022-09-30T00:42:14.121Z,9.17
2022-09-30T00:44:45.372Z,9.00
2022-09-30T00:47:28.510Z,8.10
2022-09-30T00:49:56.563Z,9.13
2022-09-30T00:52:26.497Z,7.73
2022-09-30T00:54:54.372Z,6.80
2022-09-30T00:57:22.064Z,6.73
2022-09-30T00:59:50.799Z,7.07
2022-09-30T01:02:18.481Z,7.17
2022-09-30T01:04:46.811Z,6.97
2022-09-30T01:07:15.469Z,7.10
2022-09-30T01:09:44.575Z,6.70
2022-09-30T01:12:13.158Z,6.70
2022-09-30T01:14:41.150Z,6.73
2022-09-30T01:17:11.831Z,6.57
2022-09-30T01:19:59.956Z,6.40
2022-09-30T01:22:33.822Z,6.33
2022-09-30T01:25:19.251Z,5.23
2022-09-30T01:28:07.737Z,6.57
2022-09-30T01:30:46.718Z,5.73
2022-09-30T01:33:20.783Z,5.70
2022-09-30T01:35:55.546Z,6.10
2022-09-30T01:38:29.330Z,6.13
2022-09-30T01:41:01.956Z,6.73
2022-09-30T01:43:35.029Z,6.47
2022-09-30T01:46:06.806Z,5.43
2022-09-30T01:48:36.579Z,6.30
2022-09-30T01:51:06.038Z,6.97
2022-09-30T01:53:38.390Z,7.10
2022-09-30T01:56:11.495Z,7.40
2022-09-30T01:58:41.331Z,6.83
2022-09-30T02:01:13.114Z,6.20
2022-09-30T02:03:42.908Z,6.50
2022-09-30T02:06:12.754Z,6.10
2022-09-30T02:08:42.917Z,6.23
2022-09-30T02:11:14.349Z,6.07
2022-09-30T02:13:44.924Z,5.67
2022-09-30T02:16:17.878Z,6.77
2022-09-30T02:18:48.245Z,6.10
2022-09-30T02:21:19.072Z,6.47
2022-09-30T02:23:48.596Z,8.13
2022-09-30T02:26:20.032Z,10.30
2022-09-30T02:28:49.129Z,8.17
2022-09-30T02:31:19.570Z,9.77
2022-09-30T02:33:48.652Z,9.40
2022-09-30T02:36:19.566Z,8.83
2022-09-30T02:38:50.501Z,9.23
2022-09-30T02:41:21.682Z,8.70
2022-09-30T02:43:49.256Z,8.50
2022-09-30T02:46:22.684Z,8.70
2022-09-30T02:48:54.622Z,9.30
2022-09-30T02:51:23.420Z,8.83
2022-09-30T02:53:53.962Z,9.20
2022-09-30T02:56:25.230Z,9.53
2022-09-30T02:58:53.788Z,8.73
2022-09-30T03:01:22.961Z,8.93
2022-09-30T03:03:51.316Z,7.97
2022-09-30T03:06:19.366Z,7.73
2022-09-30T03:08:46.790Z,7.13
2022-09-30T03:11:16.339Z,6.00
2022-09-30T03:14:02.458Z,7.30
2022-09-30T03:16:36.675Z,7.70
2022-09-30T03:19:16.731Z,7.30
2022-09-30T03:21:51.509Z,7.87
2022-09-30T03:24:28.717Z,7.47
2022-09-30T03:26:59.877Z,8.03
2022-09-30T03:29:31.320Z,8.10
2022-09-30T03:32:07.690Z,8.20
2022-09-30T03:34:38.517Z,8.33
2022-09-30T03:37:09.645Z,8.47
2022-09-30T03:39:42.779Z,8.33
2022-09-30T03:42:16.447Z,8.30
2022-09-30T03:44:50.730Z,9.23
2022-09-30T03:47:20.123Z,9.90
2022-09-30T03:49:50.002Z,10.57
2022-09-30T03:52:18.018Z,11.23
2022-09-30T03:54:46.988Z,11.30
2022-09-30T03:57:15.022Z,11.17
2022-09-30T03:59:42.501Z,11.93
2022-09-30T04:02:13.249Z,11.87
2022-09-30T04:04:42.703Z,11.87
2022-09-30T04:07:10.543Z,12.63
2022-09-30T04:09:38.039Z,12.57
2022-09-30T04:12:05.967Z,12.37
2022-09-30T04:14:33.709Z,12.47
2022-09-30T04:17:01.377Z,12.67
2022-09-30T04:19:28.799Z,13.43
2022-09-30T04:21:57.600Z,13.57
2022-09-30T04:24:25.526Z,13.63
2022-09-30T04:26:52.978Z,12.63
2022-09-30T04:29:20.487Z,13.20
2022-09-30T04:31:47.944Z,13.67
2022-09-30T04:34:15.477Z,14.27
2022-09-30T04:36:43.150Z,14.23
2022-09-30T04:39:11.922Z,14.27
2022-09-30T04:41:39.362Z,14.67
2022-09-30T04:44:07.112Z,13.60
2022-09-30T04:46:36.691Z,15.90
2022-09-30T04:49:08.762Z,15.70
2022-09-30T04:51:38.304Z,15.70
2022-09-30T04:54:06.182Z,14.20
2022-09-30T04:56:35.188Z,14.03
2022-09-30T04:59:02.944Z,13.13
2022-09-30T05:01:30.605Z,15.10
2022-09-30T05:03:58.242Z,15.40
2022-09-30T05:06:25.827Z,14.00
2022-09-30T05:08:53.684Z,13.50
2022-09-30T05:11:22.316Z,13.43
2022-09-30T05:13:51.277Z,14.73
2022-09-30T05:16:19.226Z,16.37
2022-09-30T05:18:47.216Z,14.23
2022-09-30T05:21:15.307Z,13.47
2022-09-30T05:23:42.811Z,17.57
2022-09-30T05:26:12.559Z,13.27
2022-09-30T05:28:40.462Z,13.47
2022-09-30T05:31:09.645Z,13.70
2022-09-30T05:33:37.583Z,12.87
2022-09-30T05:36:06.535Z,11.83
2022-09-30T05:38:34.038Z,14.97
2022-09-30T05:41:07.631Z,14.27
2022-09-30T05:43:35.174Z,15.53
2022-09-30T05:46:02.650Z,14.63
2022-09-30T05:48:31.680Z,12.50
2022-09-30T05:51:01.752Z,12.57
2022-09-30T05:53:29.400Z,12.23
2022-09-30T05:55:56.863Z,18.57
2022-09-30T05:58:24.621Z,13.40
2022-09-30T06:00:52.038Z,14.17
2022-09-30T06:03:19.892Z,12.90
2022-09-30T06:05:48.859Z,14.27
2022-09-30T06:08:17.064Z,12.83
2022-09-30T06:10:45.041Z,13.13
2022-09-30T06:13:12.736Z,13.70
2022-09-30T06:15:41.351Z,13.33
2022-09-30T06:18:09.875Z,13.13
2022-09-30T06:20:37.400Z,13.63
2022-09-30T06:23:06.243Z,13.23
2022-09-30T06:25:33.683Z,12.40
2022-09-30T06:28:01.565Z,12.53
2022-09-30T06:30:34.247Z,13.87
2022-09-30T06:33:02.668Z,14.93
2022-09-30T06:35:30.095Z,15.30
2022-09-30T06:37:57.508Z,14.37
2022-09-30T06:40:26.331Z,16.20
2022-09-30T06:42:58.854Z,13.93
2022-09-30T06:45:32.646Z,13.20
2022-09-30T06:48:01.432Z,14.70
2022-09-30T06:50:29.612Z,14.83
2022-09-30T06:52:58.326Z,14.80
2022-09-30T06:55:27.222Z,13.80
2022-09-30T06:57:55.370Z,15.47
2022-09-30T07:00:23.384Z,14.13
2022-09-30T07:02:51.240Z,15.47
2022-09-30T07:05:18.958Z,14.07
2022-09-30T07:07:46.889Z,14.07
2022-09-30T07:10:14.379Z,14.67
2022-09-30T07:12:43.193Z,15.00
2022-09-30T07:15:13.731Z,14.50
2022-09-30T07:17:41.335Z,13.27
2022-09-30T07:20:09.326Z,12.53
2022-09-30T07:22:36.732Z,14.23
2022-09-30T07:25:04.784Z,14.50
2022-09-30T07:27:33.564Z,13.17
2022-09-30T07:30:15.098Z,13.23
2022-09-30T07:32:45.691Z,11.87
2022-09-30T07:35:13.463Z,12.40
2022-09-30T07:37:40.863Z,12.87
2022-09-30T07:40:09.397Z,12.60
2022-09-30T07:42:38.668Z,13.53
2022-09-30T07:45:08.328Z,11.67
2022-09-30T07:47:35.906Z,12.50
2022-09-30T07:50:04.043Z,12.73
2022-09-30T07:52:31.530Z,11.97
2022-09-30T07:54:59.082Z,13.90
2022-09-30T07:57:26.552Z,13.30
2022-09-30T07:59:54.045Z,13.17
2022-09-30T08:02:24.519Z,14.87
2022-09-30T08:04:52.070Z,14.03
2022-09-30T08:07:20.028Z,14.63
2022-09-30T08:09:47.510Z,14.93
2022-09-30T08:12:15.006Z,14.10
2022-09-30T08:14:42.532Z,14.17
2022-09-30T08:17:09.962Z,15.33
2022-09-30T08:19:41.303Z,15.07
2022-09-30T08:22:10.564Z,14.27
2022-09-30T08:24:38.032Z,12.93
2022-09-30T08:27:05.579Z,12.57
2022-09-30T08:29:53.783Z,13.50
2022-09-30T08:32:20.481Z,13.00
2022-09-30T08:34:49.341Z,12.70
2022-09-30T08:37:16.755Z,13.27
2022-09-30T08:39:44.449Z,13.50
2022-09-30T08:42:37.720Z,12.23
2022-09-30T08:45:10.505Z,12.20
2022-09-30T08:47:44.710Z,11.97
2022-09-30T08:50:17.192Z,11.93
2022-09-30T08:52:49.063Z,11.67
2022-09-30T08:55:19.546Z,11.13
2022-09-30T08:57:47.863Z,11.97
2022-09-30T09:00:17.076Z,11.30
2022-09-30T09:02:46.906Z,11.47
2022-09-30T09:05:18.655Z,10.77
2022-09-30T09:07:52.155Z,10.97
2022-09-30T09:10:25.317Z,10.20
2022-09-30T09:12:56.979Z,11.53
2022-09-30T09:15:33.635Z,12.23
2022-09-30T09:18:23.195Z,10.20
2022-09-30T09:20:55.030Z,10.57
2022-09-30T09:23:23.057Z,11.00
2022-09-30T09:25:53.096Z,11.50
2022-09-30T09:28:26.779Z,11.57
2022-09-30T09:30:58.322Z,10.50
2022-09-30T09:33:29.706Z,10.40
2022-09-30T09:36:05.709Z,11.23
2022-09-30T09:38:36.837Z,11.00
2022-09-30T09:41:09.780Z,11.43
2022-09-30T09:43:43.705Z,10.23
2022-09-30T09:46:14.331Z,10.63
2022-09-30T09:48:41.797Z,11.63
2022-09-30T09:51:15.673Z,10.10
2022-09-30T09:53:48.762Z,10.37
2022-09-30T09:56:19.212Z,9.27
2022-09-30T09:59:09.652Z,9.03
2022-09-30T10:01:38.873Z,9.43
2022-09-30T10:04:25.909Z,10.60
2022-09-30T10:06:56.146Z,9.67
2022-09-30T10:09:33.717Z,9.47
2022-09-30T10:12:19.861Z,9.90
2022-09-30T10:14:49.941Z,9.03
2022-09-30T10:17:20.448Z,8.93
2022-09-30T10:19:50.768Z,9.80
2022-09-30T10:22:26.321Z,10.27
2022-09-30T10:25:09.516Z,9.03
2022-09-30T10:27:37.237Z,8.53
2022-09-30T10:30:05.143Z,8.77
2022-09-30T10:32:33.109Z,8.70
2022-09-30T10:35:03.235Z,8.43
2022-09-30T10:37:32.095Z,7.90
2022-09-30T10:40:01.435Z,6.77
2022-09-30T10:42:31.002Z,8.37
2022-09-30T10:45:01.831Z,8.87
2022-09-30T10:47:35.504Z,8.17
2022-09-30T10:50:06.720Z,8.80
2022-09-30T10:52:36.725Z,7.20
2022-09-30T10:55:13.820Z,5.53
2022-09-30T10:57:43.300Z,6.30
2022-09-30T11:00:15.170Z,6.03
2022-09-30T11:02:48.263Z,6.70
2022-09-30T11:05:19.386Z,6.63
2022-09-30T11:07:51.169Z,6.50
2022-09-30T11:10:36.591Z,6.93
2022-09-30T11:13:08.895Z,6.43
2022-09-30T11:15:41.331Z,6.43
2022-09-30T11:18:13.696Z,6.37
2022-09-30T11:20:42.737Z,6.60
2022-09-30T11:23:17.027Z,5.67
2022-09-30T11:25:48.078Z,5.43
2022-09-30T11:28:23.301Z,5.53
2022-09-30T11:30:55.474Z,4.97
2022-09-30T11:33:35.941Z,5.68
2022-09-30T11:36:06.758Z,5.20
2022-09-30T11:38:42.902Z,6.00
2022-09-30T11:41:12.340Z,18.23
2022-09-30T11:43:44.800Z,8.32
2022-09-30T11:46:19.183Z,5.57
2022-09-30T11:48:53.508Z,4.03
2022-09-30T11:51:23.881Z,4.43
2022-09-30T11:54:02.184Z,3.53
2022-09-30T11:56:37.095Z,3.78
2022-09-30T11:59:08.341Z,3.25
2022-09-30T12:01:38.501Z,3.47
2022-09-30T12:04:07.809Z,3.72
2022-09-30T12:06:36.734Z,5.07
2022-09-30T12:09:10.492Z,5.43
2022-09-30T12:11:42.797Z,5.15
2022-09-30T12:14:14.267Z,5.10
2022-09-30T12:16:42.239Z,5.15
2022-09-30T12:19:15.199Z,7.22
2022-09-30T12:21:48.133Z,5.50
2022-09-30T12:24:20.661Z,6.25
2022-09-30T12:26:48.275Z,5.32
2022-09-30T12:29:35.953Z,5.63
2022-09-30T12:32:10.000Z,4.57
2022-09-30T12:34:45.724Z,5.60
2022-09-30T12:37:21.366Z,5.50
2022-09-30T12:40:05.336Z,5.78
2022-09-30T12:42:50.581Z,4.90
2022-09-30T12:45:35.829Z,4.10
2022-09-30T12:48:06.688Z,3.38
2022-09-30T12:50:36.744Z,4.25
2022-09-30T12:53:12.485Z,4.07
2022-09-30T12:55:42.365Z,3.70
2022-09-30T12:58:18.561Z,4.00
2022-09-30T13:01:00.344Z,3.65
2022-09-30T13:03:28.218Z,3.00
2022-09-30T13:05:57.826Z,3.00
2022-09-30T13:08:32.838Z,2.70
2022-09-30T13:11:06.512Z,2.70
2022-09-30T13:13:37.045Z,3.23
2022-09-30T13:16:06.945Z,2.73
2022-09-30T13:18:53.301Z,2.83
2022-09-30T13:21:22.692Z,2.57
2022-09-30T13:23:50.943Z,2.27
2022-09-30T13:26:36.974Z,1.73
2022-09-30T13:29:24.448Z,1.80
2022-09-30T13:32:05.772Z,1.73
2022-09-30T13:34:35.496Z,1.60
2022-09-30T13:37:03.996Z,1.40
2022-09-30T13:39:32.791Z,1.57
2022-09-30T13:42:13.260Z,1.20
2022-09-30T13:44:45.746Z,1.33
2022-09-30T13:47:19.403Z,1.50
2022-09-30T13:49:50.639Z,0.83
2022-09-30T13:52:21.176Z,1.07
2022-09-30T13:54:49.948Z,0.90
2022-09-30T13:57:20.109Z,0.80
2022-09-30T13:59:52.704Z,1.10
2022-09-30T14:02:31.428Z,1.00
2022-09-30T14:05:07.127Z,1.10
2022-09-30T14:07:41.143Z,1.10
2022-09-30T14:10:23.131Z,0.80
2022-09-30T14:13:02.765Z,1.00
2022-09-30T14:15:42.525Z,1.10
2022-09-30T14:18:24.922Z,1.20
2022-09-30T14:21:13.557Z,1.00
2022-09-30T14:23:41.123Z,0.90
2022-09-30T14:26:16.729Z,1.10
2022-09-30T14:28:48.856Z,0.80
2022-09-30T14:31:16.655Z,0.90
2022-09-30T14:33:45.630Z,0.73
2022-09-30T14:36:16.737Z,0.83
2022-09-30T14:38:45.465Z,0.70
2022-09-30T14:41:17.714Z,1.10
2022-09-30T14:43:47.966Z,0.93
2022-09-30T14:46:19.274Z,0.70
2022-09-30T14:48:50.719Z,0.80
2022-09-30T14:51:23.579Z,0.90
2022-09-30T14:53:54.800Z,0.80
2022-09-30T14:56:23.298Z,1.03
2022-09-30T14:58:53.043Z,0.90
2022-09-30T15:01:23.249Z,0.80
2022-09-30T15:03:53.413Z,1.10
2022-09-30T15:06:22.023Z,1.50
2022-09-30T15:08:49.864Z,0.90
2022-09-30T15:11:21.301Z,1.00
2022-09-30T15:13:49.366Z,0.90
2022-09-30T15:16:28.533Z,1.00
2022-09-30T15:18:56.286Z,0.70
2022-09-30T15:21:25.048Z,0.83
2022-09-30T15:23:53.427Z,1.10
2022-09-30T15:26:22.614Z,1.00
2022-09-30T15:28:50.194Z,1.70
2022-09-30T15:31:23.109Z,1.00
2022-09-30T15:34:01.214Z,2.10
2022-09-30T15:36:28.871Z,1.07
2022-09-30T15:38:56.558Z,1.17
2022-09-30T15:41:24.165Z,1.30
2022-09-30T15:43:52.567Z,0.80
2022-09-30T15:46:30.798Z,0.90
2022-09-30T15:49:01.634Z,0.80
2022-09-30T15:51:33.317Z,0.70
2022-09-30T15:54:02.010Z,0.80
2022-09-30T15:56:35.751Z,1.03
2022-09-30T15:59:05.547Z,0.80
2022-09-30T16:01:37.458Z,0.80
2022-09-30T16:04:12.856Z,1.00
2022-09-30T16:06:45.145Z,2.20
2022-09-30T16:09:23.871Z,4.50
2022-09-30T16:11:59.115Z,1.40
2022-09-30T16:14:27.878Z,0.90
2022-09-30T16:16:57.092Z,0.90
2022-09-30T16:19:26.376Z,1.20
2022-09-30T16:21:54.829Z,1.10
2022-09-30T16:24:41.055Z,0.80
2022-09-30T16:27:20.629Z,0.90
2022-09-30T16:29:48.032Z,3.30
2022-09-30T16:32:15.486Z,2.70
2022-09-30T16:34:44.262Z,1.60
2022-09-30T16:37:12.673Z,2.00
2022-09-30T16:39:40.216Z,2.03
2022-09-30T16:42:07.877Z,1.70
2022-09-30T16:44:35.536Z,1.80
2022-09-30T16:47:03.230Z,1.53
2022-09-30T16:49:30.666Z,1.00
2022-09-30T16:51:59.443Z,1.43
2022-09-30T16:54:26.930Z,1.63
2022-09-30T16:56:57.623Z,1.53
2022-09-30T16:59:28.188Z,1.70
2022-09-30T17:01:55.727Z,1.30
2022-09-30T17:04:23.184Z,1.30
2022-09-30T17:06:50.832Z,1.20
2022-09-30T17:09:19.675Z,1.50
2022-09-30T17:11:47.115Z,1.77
2022-09-30T17:14:16.948Z,2.07
2022-09-30T17:16:46.590Z,2.70
2022-09-30T17:19:14.120Z,3.53
2022-09-30T17:21:41.715Z,2.40
2022-09-30T17:24:09.240Z,2.83
2022-09-30T17:26:38.943Z,2.57
2022-09-30T17:29:30.906Z,2.30
2022-09-30T17:31:55.499Z,3.63
2022-09-30T17:34:23.824Z,17.43
2022-09-30T17:36:51.258Z,46.87
2022-09-30T17:39:18.692Z,62.53
2022-09-30T17:42:04.640Z,70.43
2022-09-30T17:44:33.107Z,56.43
2022-09-30T17:47:01.266Z,65.90
2022-09-30T17:49:33.033Z,61.83
2022-09-30T17:52:00.426Z,61.00
2022-09-30T17:54:27.930Z,62.20
2022-09-30T17:56:58.078Z,55.50
2022-09-30T17:59:25.981Z,40.90
2022-09-30T18:01:56.433Z,27.60
2022-09-30T18:04:24.640Z,26.63
2022-09-30T18:06:52.304Z,34.43
2022-09-30T18:09:19.745Z,27.57
2022-09-30T18:11:47.200Z,25.97
2022-09-30T18:14:16.192Z,11.03
2022-09-30T18:16:43.841Z,12.97
2022-09-30T18:19:11.534Z,14.20
2022-09-30T18:21:39.067Z,11.07
2022-09-30T18:24:07.171Z,10.57
2022-09-30T18:26:35.947Z,10.80
2022-09-30T18:29:03.904Z,8.83
2022-09-30T18:31:37.486Z,8.90
2022-09-30T18:34:05.917Z,8.70
2022-09-30T18:36:33.543Z,8.00
2022-09-30T18:39:02.590Z,7.90
2022-09-30T18:41:31.900Z,8.10
2022-09-30T18:44:02.981Z,7.43
2022-09-30T18:46:30.948Z,6.63
2022-09-30T18:48:59.845Z,7.67
2022-09-30T18:51:27.413Z,7.60
2022-09-30T18:53:57.783Z,6.83
2022-09-30T18:56:26.385Z,8.07
2022-09-30T18:58:54.248Z,6.80
2022-09-30T19:01:21.967Z,7.13
2022-09-30T19:03:49.909Z,7.37
2022-09-30T19:06:18.988Z,6.93
2022-09-30T19:08:46.533Z,8.23
2022-09-30T19:11:17.591Z,9.13
2022-09-30T19:13:47.856Z,8.53
2022-09-30T19:16:18.725Z,8.03
2022-09-30T19:18:46.981Z,7.43
2022-09-30T19:21:16.308Z,8.30
2022-09-30T19:23:45.310Z,7.10
2022-09-30T19:26:16.121Z,7.57
2022-09-30T19:28:44.693Z,6.90
2022-09-30T19:31:14.345Z,7.50
2022-09-30T19:33:55.239Z,7.60
2022-09-30T19:36:24.858Z,7.37
2022-09-30T19:39:08.713Z,7.67
2022-09-30T19:41:41.244Z,8.00
2022-09-30T19:44:08.856Z,7.60
2022-09-30T19:46:36.613Z,7.67
2022-09-30T19:49:05.835Z,8.23
2022-09-30T19:51:34.527Z,8.53
2022-09-30T19:54:07.179Z,8.33
2022-09-30T19:56:35.811Z,7.70
2022-09-30T19:59:03.432Z,8.30
2022-09-30T20:01:34.379Z,8.27
2022-09-30T20:04:05.436Z,8.20
2022-09-30T20:06:36.051Z,7.83
2022-09-30T20:09:06.860Z,8.87
2022-09-30T20:11:36.283Z,8.30
2022-09-30T20:14:22.263Z,7.97
2022-09-30T20:16:49.853Z,7.53
2022-09-30T20:19:17.713Z,7.93
2022-09-30T20:21:45.838Z,7.57
2022-09-30T20:24:15.796Z,9.87
2022-09-30T20:26:43.976Z,7.13
2022-09-30T20:29:12.012Z,7.97
2022-09-30T20:31:41.960Z,7.60
2022-09-30T20:34:10.653Z,18.40
2022-09-30T20:36:38.992Z,8.87
2022-09-30T20:39:07.519Z,7.77
2022-09-30T20:41:37.617Z,8.63
2022-09-30T20:44:05.479Z,8.07
2022-09-30T20:46:36.062Z,6.47
2022-09-30T20:49:04.107Z,7.40
2022-09-30T20:51:39.335Z,7.67
2022-09-30T20:54:10.593Z,6.80
2022-09-30T20:57:05.667Z,8.20
2022-09-30T20:59:28.709Z,7.73
2022-09-30T21:01:59.189Z,9.27
2022-09-30T21:04:26.727Z,7.67
2022-09-30T21:06:54.382Z,7.87
2022-09-30T21:09:21.858Z,7.60
2022-09-30T21:11:50.731Z,7.47
2022-09-30T21:14:19.387Z,6.83
2022-09-30T21:16:46.990Z,6.77
2022-09-30T21:19:14.599Z,6.83
2022-09-30T21:21:42.055Z,6.80
2022-09-30T21:24:09.659Z,6.43
2022-09-30T21:26:37.184Z,7.53
2022-09-30T21:29:06.149Z,7.43
2022-09-30T21:31:35.166Z,6.00
2022-09-30T21:34:03.907Z,6.30
2022-09-30T21:36:32.175Z,6.10
2022-09-30T21:39:02.196Z,6.57
2022-09-30T21:41:30.378Z,6.27
2022-09-30T21:43:58.351Z,7.23
2022-09-30T21:46:27.631Z,6.60
2022-09-30T21:49:05.033Z,5.93
2022-09-30T21:51:34.511Z,6.70
2022-09-30T21:54:02.976Z,7.40
2022-09-30T21:56:30.926Z,6.80
2022-09-30T21:58:58.494Z,6.97
2022-09-30T22:01:27.378Z,7.20
2022-09-30T22:03:54.883Z,7.53
2022-09-30T22:06:22.369Z,8.70
2022-09-30T22:08:49.833Z,8.07
2022-09-30T22:11:18.317Z,7.80
2022-09-30T22:13:46.257Z,7.53
2022-09-30T22:16:15.417Z,9.23
2022-09-30T22:18:44.429Z,8.17
2022-09-30T22:21:13.329Z,9.10
2022-09-30T22:23:41.106Z,8.53
2022-09-30T22:26:09.608Z,9.77
2022-09-30T22:28:37.318Z,9.90
2022-09-30T22:31:11.624Z,9.63
2022-09-30T22:34:11.576Z,9.20
2022-09-30T22:37:00.404Z,9.20
2022-09-30T22:39:27.861Z,10.17
2022-09-30T22:41:56.107Z,9.70
2022-09-30T22:44:25.525Z,8.93
2022-09-30T22:46:53.439Z,8.97
2022-09-30T22:49:20.980Z,9.43
2022-09-30T22:51:52.202Z,9.30
2022-09-30T22:54:19.827Z,8.93
2022-09-30T22:56:50.345Z,10.47
2022-09-30T22:59:18.251Z,10.27
2022-09-30T23:01:45.957Z,10.10
2022-09-30T23:04:14.882Z,9.67
2022-09-30T23:06:42.410Z,10.83
2022-09-30T23:09:11.370Z,10.70
2022-09-30T23:11:39.249Z,9.97
2022-09-30T23:14:06.788Z,10.27
2022-09-30T23:16:34.259Z,10.00
2022-09-30T23:19:01.784Z,11.10
2022-09-30T23:21:29.267Z,11.40
2022-09-30T23:23:56.750Z,11.30
2022-09-30T23:26:26.117Z,11.17
2022-09-30T23:28:53.920Z,11.33
2022-09-30T23:31:21.409Z,11.33
2022-09-30T23:33:49.912Z,12.10
2022-09-30T23:36:18.712Z,11.27
2022-09-30T23:38:46.489Z,11.10
2022-09-30T23:41:14.051Z,11.73
2022-09-30T23:43:48.189Z,11.13
2022-09-30T23:46:16.129Z,11.03
2022-09-30T23:48:44.759Z,11.40
2022-09-30T23:51:12.379Z,12.20
2022-09-30T23:53:39.846Z,10.50
2022-09-30T23:56:08.328Z,10.57
2022-09-30T23:58:36.605Z,9.87
